Time,TemperatureF,DewpointF,PressureIn,WindDirection,WindDirectionDegrees,WindSpeedMPH,WindSpeedGustMPH,Humidity,HourlyPrecipIn,Conditions,Clouds,dailyrainin,SoftwareType,DateUTC
2013-05-19 00:01:00,44.5,37.7,30.17,North,0,0.0,1.6,77,0.00,,,0.00,WUHU216HW,2013-05-19 04:01:00,
2013-05-19 00:06:00,44.1,37.4,30.17,North,0,0.0,0.7,77,0.00,,,0.00,WUHU216HW,2013-05-19 04:06:00,
2013-05-19 00:11:00,43.6,37.2,30.18,North,0,0.4,0.7,78,0.00,,,0.00,WUHU216HW,2013-05-19 04:11:00,
2013-05-19 00:16:00,43.0,36.6,30.18,North,0,0.0,0.7,78,0.00,,,0.00,WUHU216HW,2013-05-19 04:16:00,
2013-05-19 00:21:00,42.7,36.3,30.18,NNW,338,0.0,0.4,78,0.00,,,0.00,WUHU216HW,2013-05-19 04:21:00,
2013-05-19 00:26:00,42.3,36.5,30.18,North,0,0.4,0.9,80,0.00,,,0.00,WUHU216HW,2013-05-19 04:26:00,
2013-05-19 00:31:00,42.1,36.0,30.18,NNW,338,0.0,0.9,79,0.00,,,0.00,WUHU216HW,2013-05-19 04:31:00,
2013-05-19 00:36:00,41.8,35.6,30.18,North,0,0.0,0.9,79,0.00,,,0.00,WUHU216HW,2013-05-19 04:36:00,
2013-05-19 00:41:00,41.4,35.3,30.17,NNW,338,0.0,0.9,79,0.00,,,0.00,WUHU216HW,2013-05-19 04:41:00,
2013-05-19 00:46:00,41.2,35.5,30.18,NNW,338,0.0,0.7,80,0.00,,,0.00,WUHU216HW,2013-05-19 04:46:00,
2013-05-19 00:51:00,40.9,35.1,30.18,NNW,338,0.0,0.7,80,0.00,,,0.00,WUHU216HW,2013-05-19 04:51:00,
2013-05-19 00:56:00,40.7,34.7,30.18,NNW,338,0.0,0.0,79,0.00,,,0.00,WUHU216HW,2013-05-19 04:56:00,
2013-05-19 01:01:00,40.5,34.8,30.18,NNW,338,0.0,0.0,80,0.00,,,0.00,WUHU216HW,2013-05-19 05:01:00,
2013-05-19 01:06:00,40.3,34.9,30.18,NNW,338,0.0,0.0,81,0.00,,,0.00,WUHU216HW,2013-05-19 05:06:00,
2013-05-19 01:11:00,40.3,34.9,30.18,North,0,0.0,1.1,81,0.00,,,0.00,WUHU216HW,2013-05-19 05:11:00,
2013-05-19 01:16:00,40.3,34.9,30.18,NW,315,0.0,1.1,81,0.00,,,0.00,WUHU216HW,2013-05-19 05:16:00,
2013-05-19 01:21:00,40.0,34.6,30.18,NNW,338,0.9,1.1,81,0.00,,,0.00,WUHU216HW,2013-05-19 05:21:00,
2013-05-19 01:26:00,39.6,34.3,30.18,NW,315,0.0,1.1,81,0.00,,,0.00,WUHU216HW,2013-05-19 05:26:00,
2013-05-19 01:31:00,39.6,34.3,30.18,North,0,0.0,0.9,81,0.00,,,0.00,WUHU216HW,2013-05-19 05:31:00,
2013-05-19 01:36:00,39.2,33.9,30.18,NNW,338,0.0,0.0,81,0.00,,,0.00,WUHU216HW,2013-05-19 05:36:00,
2013-05-19 01:41:00,38.9,33.8,30.18,North,0,0.7,1.3,82,0.00,,,0.00,WUHU216HW,2013-05-19 05:41:00,
2013-05-19 01:46:00,38.9,33.8,30.18,North,0,0.0,1.3,82,0.00,,,0.00,WUHU216HW,2013-05-19 05:46:00,
2013-05-19 01:51:00,38.7,33.7,30.18,North,0,0.0,0.7,82,0.00,,,0.00,WUHU216HW,2013-05-19 05:51:00,
2013-05-19 01:56:00,38.5,33.5,30.18,North,0,0.0,0.7,82,0.00,,,0.00,WUHU216HW,2013-05-19 05:56:00,
2013-05-19 02:01:00,38.3,33.3,30.18,North,0,0.0,0.7,82,0.00,,,0.00,WUHU216HW,2013-05-19 06:01:00,
2013-05-19 02:06:00,38.3,33.3,30.18,NW,315,0.7,0.9,82,0.00,,,0.00,WUHU216HW,2013-05-19 06:06:00,
2013-05-19 02:11:00,38.0,33.3,30.18,NNW,338,0.7,1.1,83,0.00,,,0.00,WUHU216HW,2013-05-19 06:11:00,
2013-05-19 02:16:00,37.8,33.1,30.18,NNW,338,0.0,1.1,83,0.00,,,0.00,WUHU216HW,2013-05-19 06:16:00,
2013-05-19 02:21:00,37.4,32.8,30.18,North,0,0.4,1.1,83,0.00,,,0.00,WUHU216HW,2013-05-19 06:21:00,
2013-05-19 02:26:00,37.3,32.2,30.18,North,0,0.0,1.1,82,0.00,,,0.00,WUHU216HW,2013-05-19 06:26:00,
2013-05-19 02:31:00,37.1,32.0,30.19,North,0,0.0,0.9,82,0.00,,,0.00,WUHU216HW,2013-05-19 06:31:00,
2013-05-19 02:36:00,36.9,31.9,30.18,North,0,0.0,0.0,82,0.00,,,0.00,WUHU216HW,2013-05-19 06:36:00,
2013-05-19 02:41:00,36.7,32.1,30.19,North,0,0.4,1.1,83,0.00,,,0.00,WUHU216HW,2013-05-19 06:41:00,
2013-05-19 02:46:00,36.7,32.1,30.19,NW,315,0.9,1.1,83,0.00,,,0.00,WUHU216HW,2013-05-19 06:46:00,
2013-05-19 02:51:00,36.4,32.0,30.19,NNW,338,0.4,1.1,84,0.00,,,0.00,WUHU216HW,2013-05-19 06:51:00,
2013-05-19 02:56:00,36.4,32.0,30.19,NNW,338,0.0,1.1,84,0.00,,,0.00,WUHU216HW,2013-05-19 06:56:00,
2013-05-19 03:01:00,36.2,31.5,30.19,North,0,1.1,1.1,83,0.00,,,0.00,WUHU216HW,2013-05-19 07:01:00,
2013-05-19 03:06:00,36.2,31.5,30.19,North,0,0.0,1.1,83,0.00,,,0.00,WUHU216HW,2013-05-19 07:06:00,
2013-05-19 03:11:00,36.0,31.3,30.19,NNW,338,0.7,1.1,83,0.00,,,0.00,WUHU216HW,2013-05-19 07:11:00,
2013-05-19 03:16:00,35.6,31.2,30.20,NNW,338,0.4,0.9,84,0.00,,,0.00,WUHU216HW,2013-05-19 07:16:00,
2013-05-19 03:21:00,35.6,31.2,30.20,NW,315,0.4,0.9,84,0.00,,,0.00,WUHU216HW,2013-05-19 07:21:00,
2013-05-19 03:26:00,35.6,31.2,30.20,North,0,1.1,1.1,84,0.00,,,0.00,WUHU216HW,2013-05-19 07:26:00,
2013-05-19 03:31:00,35.5,31.1,30.20,North,0,0.0,1.1,84,0.00,,,0.00,WUHU216HW,2013-05-19 07:31:00,
2013-05-19 03:36:00,35.1,30.7,30.20,NNW,338,0.4,1.1,84,0.00,,,0.00,WUHU216HW,2013-05-19 07:36:00,
2013-05-19 03:41:00,35.3,30.9,30.21,West,270,0.4,1.1,84,0.00,,,0.00,WUHU216HW,2013-05-19 07:41:00,
2013-05-19 03:46:00,35.3,30.9,30.20,North,0,0.9,1.1,84,0.00,,,0.00,WUHU216HW,2013-05-19 07:46:00,
2013-05-19 03:51:00,34.9,30.5,30.20,North,0,0.0,0.9,84,0.00,,,0.00,WUHU216HW,2013-05-19 07:51:00,
2013-05-19 03:56:00,34.9,30.5,30.21,North,0,0.0,0.9,84,0.00,,,0.00,WUHU216HW,2013-05-19 07:56:00,
2013-05-19 04:01:00,35.1,30.7,30.21,North,0,0.0,0.0,84,0.00,,,0.00,WUHU216HW,2013-05-19 08:01:00,
2013-05-19 04:06:00,34.7,30.3,30.20,NNW,338,0.9,0.9,84,0.00,,,0.00,WUHU216HW,2013-05-19 08:06:00,
2013-05-19 04:11:00,34.6,30.2,30.21,NNW,338,0.0,0.9,84,0.00,,,0.00,WUHU216HW,2013-05-19 08:11:00,
2013-05-19 04:16:00,34.2,29.8,30.21,North,0,0.4,1.1,84,0.00,,,0.00,WUHU216HW,2013-05-19 08:16:00,
2013-05-19 04:21:00,34.2,29.8,30.21,NNW,338,0.0,1.1,84,0.00,,,0.00,WUHU216HW,2013-05-19 08:21:00,
2013-05-19 04:26:00,34.2,29.8,30.21,NNW,338,0.0,0.7,84,0.00,,,0.00,WUHU216HW,2013-05-19 08:26:00,
2013-05-19 04:31:00,34.2,29.8,30.21,North,0,0.0,0.0,84,0.00,,,0.00,WUHU216HW,2013-05-19 08:31:00,
2013-05-19 04:36:00,34.2,30.3,30.21,North,0,0.0,0.0,86,0.00,,,0.00,WUHU216HW,2013-05-19 08:36:00,
2013-05-19 04:41:00,34.9,31.1,30.21,North,0,0.0,0.0,86,0.00,,,0.00,WUHU216HW,2013-05-19 08:41:00,
2013-05-19 04:46:00,34.4,30.5,30.21,North,0,0.2,1.1,86,0.00,,,0.00,WUHU216HW,2013-05-19 08:46:00,
2013-05-19 04:51:00,34.0,30.2,30.21,NNW,338,0.0,1.1,86,0.00,,,0.00,WUHU216HW,2013-05-19 08:51:00,
2013-05-19 04:56:00,33.7,29.8,30.21,NNW,338,0.0,0.7,86,0.00,,,0.00,WUHU216HW,2013-05-19 08:56:00,
2013-05-19 05:01:00,33.7,29.8,30.21,NNW,338,0.0,0.7,86,0.00,,,0.00,WUHU216HW,2013-05-19 09:01:00,
2013-05-19 05:06:00,33.8,29.7,30.21,NNW,338,0.0,0.0,85,0.00,,,0.00,WUHU216HW,2013-05-19 09:06:00,
2013-05-19 05:11:00,33.7,29.8,30.21,NNW,338,0.0,0.2,86,0.00,,,0.00,WUHU216HW,2013-05-19 09:11:00,
2013-05-19 05:16:00,33.7,29.8,30.21,North,0,0.0,0.9,86,0.00,,,0.00,WUHU216HW,2013-05-19 09:16:00,
2013-05-19 05:21:00,33.5,29.7,30.21,North,0,0.0,0.9,86,0.00,,,0.00,WUHU216HW,2013-05-19 09:21:00,
2013-05-19 05:26:00,33.7,29.8,30.22,NNW,338,0.4,0.7,86,0.00,,,0.00,WUHU216HW,2013-05-19 09:26:00,
2013-05-19 05:31:00,33.7,29.8,30.22,NNW,338,0.0,0.7,86,0.00,,,0.00,WUHU216HW,2013-05-19 09:31:00,
2013-05-19 05:36:00,34.2,30.3,30.22,North,0,0.0,0.4,86,0.00,,,0.00,WUHU216HW,2013-05-19 09:36:00,
2013-05-19 05:41:00,35.6,31.8,30.22,North,0,0.4,0.4,86,0.00,,,0.00,WUHU216HW,2013-05-19 09:41:00,
2013-05-19 05:46:00,37.1,33.2,30.22,NNW,338,0.7,0.7,86,0.00,,,0.00,WUHU216HW,2013-05-19 09:46:00,
2013-05-19 05:51:00,38.2,34.0,30.23,NNW,338,0.0,0.7,85,0.00,,,0.00,WUHU216HW,2013-05-19 09:51:00,
2013-05-19 05:56:00,40.0,35.5,30.22,NNW,338,0.0,0.7,84,0.00,,,0.00,WUHU216HW,2013-05-19 09:56:00,
2013-05-19 06:01:00,42.1,35.4,30.23,NE,45,1.6,1.8,77,0.00,,,0.00,WUHU216HW,2013-05-19 10:01:00,
2013-05-19 06:06:00,42.1,35.4,30.23,NNE,23,0.7,1.8,77,0.00,,,0.00,WUHU216HW,2013-05-19 10:06:00,
2013-05-19 06:11:00,42.8,36.7,30.23,NNW,338,0.0,1.6,79,0.00,,,0.00,WUHU216HW,2013-05-19 10:11:00,
2013-05-19 06:16:00,44.3,37.8,30.23,West,270,0.4,1.1,78,0.00,,,0.00,WUHU216HW,2013-05-19 10:16:00,
2013-05-19 06:21:00,45.7,39.2,30.23,WNW,293,0.0,1.1,78,0.00,,,0.00,WUHU216HW,2013-05-19 10:21:00,
2013-05-19 06:27:00,47.0,39.8,30.23,WNW,293,0.0,0.2,76,0.00,,,0.00,WUHU216HW,2013-05-19 10:27:00,
2013-05-19 06:32:00,48.8,41.1,30.22,NNW,338,0.0,0.0,75,0.00,,,0.00,WUHU216HW,2013-05-19 10:32:00,
2013-05-19 06:36:00,50.9,41.6,30.22,NNE,23,0.9,1.1,70,0.00,,,0.00,WUHU216HW,2013-05-19 10:36:00,
2013-05-19 06:42:00,51.1,41.0,30.22,NNE,23,1.1,1.1,68,0.00,,,0.00,WUHU216HW,2013-05-19 10:42:00,
2013-05-19 06:47:00,52.0,42.7,30.22,NE,45,0.0,1.1,70,0.00,,,0.00,WUHU216HW,2013-05-19 10:47:00,
2013-05-19 06:51:00,54.5,45.0,30.23,SE,135,0.4,1.1,70,0.00,,,0.00,WUHU216HW,2013-05-19 10:51:00,
2013-05-19 06:57:00,56.2,44.9,30.23,ESE,113,0.9,1.1,66,0.00,,,0.00,WUHU216HW,2013-05-19 10:57:00,
2013-05-19 07:02:00,56.7,43.0,30.23,East,90,1.8,2.0,60,0.00,,,0.00,WUHU216HW,2013-05-19 11:02:00,
2013-05-19 07:07:00,55.4,42.2,30.23,NE,45,1.6,2.9,61,0.00,,,0.00,WUHU216HW,2013-05-19 11:07:00,
2013-05-19 07:12:00,55.4,43.0,30.23,ENE,68,2.5,2.9,63,0.00,,,0.00,WUHU216HW,2013-05-19 11:12:00,
2013-05-19 07:17:00,55.8,42.9,30.23,NNE,23,1.1,2.5,62,0.00,,,0.00,WUHU216HW,2013-05-19 11:17:00,
2013-05-19 07:22:00,55.4,42.6,30.23,ENE,68,1.6,2.5,62,0.00,,,0.00,WUHU216HW,2013-05-19 11:22:00,
2013-05-19 07:27:00,55.6,43.2,30.23,ENE,68,1.3,2.5,63,0.00,,,0.00,WUHU216HW,2013-05-19 11:27:00,
2013-05-19 07:31:00,56.3,43.9,30.23,NNW,338,0.7,2.0,63,0.00,,,0.00,WUHU216HW,2013-05-19 11:31:00,
2013-05-19 07:37:00,54.5,42.2,30.23,North,0,2.0,3.1,63,0.00,,,0.00,WUHU216HW,2013-05-19 11:37:00,
2013-05-19 07:42:00,53.8,42.7,30.23,NNE,23,2.7,3.1,66,0.00,,,0.00,WUHU216HW,2013-05-19 11:42:00,
2013-05-19 07:47:00,54.4,42.9,30.23,NE,45,1.8,2.7,65,0.00,,,0.00,WUHU216HW,2013-05-19 11:47:00,
2013-05-19 07:52:00,53.5,42.4,30.22,NNE,23,0.7,3.1,66,0.00,,,0.00,WUHU216HW,2013-05-19 11:52:00,
2013-05-19 07:57:00,52.9,43.0,30.22,ENE,68,2.7,3.1,69,0.00,,,0.00,WUHU216HW,2013-05-19 11:57:00,
2013-05-19 08:02:00,52.7,42.9,30.22,SE,135,1.1,3.4,69,0.00,,,0.00,WUHU216HW,2013-05-19 12:02:00,
2013-05-19 08:07:00,53.5,43.6,30.22,ESE,113,2.2,3.4,69,0.00,,,0.00,WUHU216HW,2013-05-19 12:07:00,
2013-05-19 08:12:00,53.8,43.5,30.22,East,90,1.1,2.9,68,0.00,,,0.00,WUHU216HW,2013-05-19 12:12:00,
2013-05-19 08:17:00,54.4,44.0,30.22,SSE,158,1.1,2.9,68,0.00,,,0.00,WUHU216HW,2013-05-19 12:17:00,
2013-05-19 08:22:00,54.9,44.1,30.22,SSW,203,2.2,2.9,67,0.00,,,0.00,WUHU216HW,2013-05-19 12:22:00,
2013-05-19 08:27:00,55.4,44.3,30.22,South,180,2.5,2.9,66,0.00,,,0.00,WUHU216HW,2013-05-19 12:27:00,
2013-05-19 08:32:00,55.8,44.6,30.22,SE,135,0.2,2.5,66,0.00,,,0.00,WUHU216HW,2013-05-19 12:32:00,
2013-05-19 08:37:00,55.8,44.2,30.22,WSW,248,0.4,2.5,65,0.00,,,0.00,WUHU216HW,2013-05-19 12:37:00,
2013-05-19 08:42:00,56.5,44.8,30.22,South,180,2.0,2.5,65,0.00,,,0.00,WUHU216HW,2013-05-19 12:42:00,
2013-05-19 08:47:00,57.2,45.5,30.22,SSW,203,1.3,2.5,65,0.00,,,0.00,WUHU216HW,2013-05-19 12:47:00,
2013-05-19 08:52:00,57.6,45.5,30.22,SSW,203,1.8,2.2,64,0.00,,,0.00,WUHU216HW,2013-05-19 12:52:00,
2013-05-19 08:57:00,58.0,45.5,30.22,SE,135,1.1,2.2,63,0.00,,,0.00,WUHU216HW,2013-05-19 12:57:00,
2013-05-19 09:02:00,58.5,45.9,30.22,SSW,203,0.9,2.0,63,0.00,,,0.00,WUHU216HW,2013-05-19 13:02:00,
2013-05-19 09:07:00,59.4,46.8,30.21,South,180,1.8,2.5,63,0.00,,,0.00,WUHU216HW,2013-05-19 13:07:00,
2013-05-19 09:12:00,59.9,46.9,30.21,South,180,1.8,2.9,62,0.00,,,0.00,WUHU216HW,2013-05-19 13:12:00,
2013-05-19 09:17:00,59.9,46.9,30.21,SE,135,1.8,2.9,62,0.00,,,0.00,WUHU216HW,2013-05-19 13:17:00,
2013-05-19 09:22:00,60.5,47.4,30.21,SE,135,2.2,2.9,62,0.00,,,0.00,WUHU216HW,2013-05-19 13:22:00,
2013-05-19 09:27:00,61.0,48.0,30.21,South,180,1.3,2.9,62,0.00,,,0.00,WUHU216HW,2013-05-19 13:27:00,
2013-05-19 09:32:00,61.4,47.4,30.21,NNE,23,1.8,3.1,60,0.00,,,0.00,WUHU216HW,2013-05-19 13:32:00,
2013-05-19 09:37:00,62.1,48.5,30.21,SW,225,0.7,3.1,61,0.00,,,0.00,WUHU216HW,2013-05-19 13:37:00,
2013-05-19 09:42:00,63.0,49.0,30.21,SSE,158,3.6,3.8,60,0.00,,,0.00,WUHU216HW,2013-05-19 13:42:00,
2013-05-19 09:47:00,63.9,48.8,30.21,SSW,203,1.1,4.0,58,0.00,,,0.00,WUHU216HW,2013-05-19 13:47:00,
2013-05-19 09:52:00,64.4,48.2,30.21,NE,45,2.5,4.0,56,0.00,,,0.00,WUHU216HW,2013-05-19 13:52:00,
2013-05-19 09:57:00,62.3,45.4,30.20,ENE,68,2.2,4.7,54,0.00,,,0.00,WUHU216HW,2013-05-19 13:57:00,
2013-05-19 10:02:00,62.5,47.4,30.20,NE,45,3.1,4.7,58,0.00,,,0.00,WUHU216HW,2013-05-19 14:02:00,
2013-05-19 10:07:00,63.0,47.0,30.20,ENE,68,4.0,4.0,56,0.00,,,0.00,WUHU216HW,2013-05-19 14:07:00,
2013-05-19 10:12:00,63.4,45.8,30.20,NE,45,3.8,5.6,53,0.00,,,0.00,WUHU216HW,2013-05-19 14:12:00,
2013-05-19 10:17:00,63.0,46.5,30.20,ENE,68,2.2,5.6,55,0.00,,,0.00,WUHU216HW,2013-05-19 14:17:00,
2013-05-19 10:22:00,64.3,46.6,30.19,NE,45,2.5,3.8,53,0.00,,,0.00,WUHU216HW,2013-05-19 14:22:00,
2013-05-19 10:27:00,65.0,47.9,30.19,ENE,68,1.8,3.8,54,0.00,,,0.00,WUHU216HW,2013-05-19 14:27:00,
2013-05-19 10:32:00,65.5,48.4,30.19,ENE,68,1.3,3.4,54,0.00,,,0.00,WUHU216HW,2013-05-19 14:32:00,
2013-05-19 10:37:00,66.4,47.8,30.19,NNE,23,2.5,5.8,51,0.00,,,0.00,WUHU216HW,2013-05-19 14:37:00,
2013-05-19 10:42:00,67.1,48.4,30.19,NE,45,1.8,5.8,51,0.00,,,0.00,WUHU216HW,2013-05-19 14:42:00,
2013-05-19 10:47:00,68.4,48.5,30.19,East,90,1.8,2.9,49,0.00,,,0.00,WUHU216HW,2013-05-19 14:47:00,
2013-05-19 10:52:00,69.3,49.3,30.19,SSE,158,3.1,3.8,49,0.00,,,0.00,WUHU216HW,2013-05-19 14:52:00,
2013-05-19 10:57:00,70.4,49.7,30.19,SSE,158,3.6,4.7,48,0.00,,,0.00,WUHU216HW,2013-05-19 14:57:00,
2013-05-19 11:02:00,70.9,48.4,30.19,SE,135,2.5,4.7,45,0.00,,,0.00,WUHU216HW,2013-05-19 15:02:00,
2013-05-19 11:07:00,71.6,47.9,30.19,SSW,203,3.4,5.1,43,0.00,,,0.00,WUHU216HW,2013-05-19 15:07:00,
2013-05-19 11:12:00,72.2,49.0,30.19,SSE,158,2.0,5.1,44,0.00,,,0.00,WUHU216HW,2013-05-19 15:12:00,
2013-05-19 11:17:00,73.1,49.8,30.19,SE,135,1.8,4.0,44,0.00,,,0.00,WUHU216HW,2013-05-19 15:17:00,
2013-05-19 11:22:00,73.8,48.1,30.18,SSW,203,2.5,3.8,40,0.00,,,0.00,WUHU216HW,2013-05-19 15:22:00,
2013-05-19 11:27:00,74.2,46.8,30.19,SSE,158,3.4,4.9,38,0.00,,,0.00,WUHU216HW,2013-05-19 15:27:00,
2013-05-19 11:32:00,74.9,48.2,30.18,SSW,203,2.7,4.9,39,0.00,,,0.00,WUHU216HW,2013-05-19 15:32:00,
2013-05-19 11:37:00,75.2,44.8,30.18,NNE,23,2.9,5.4,34,0.00,,,0.00,WUHU216HW,2013-05-19 15:37:00,
2013-05-19 11:42:00,75.2,47.8,30.18,SSE,158,2.7,5.4,38,0.00,,,0.00,WUHU216HW,2013-05-19 15:42:00,
2013-05-19 11:47:00,75.6,45.9,30.18,SSW,203,2.0,3.8,35,0.00,,,0.00,WUHU216HW,2013-05-19 15:47:00,
2013-05-19 11:52:00,76.0,46.2,30.17,SE,135,3.8,4.7,35,0.00,,,0.00,WUHU216HW,2013-05-19 15:52:00,
2013-05-19 11:57:00,76.0,47.0,30.17,ESE,113,1.1,7.4,36,0.00,,,0.00,WUHU216HW,2013-05-19 15:57:00,
2013-05-19 12:02:00,76.7,46.8,30.17,SE,135,4.7,7.4,35,0.00,,,0.00,WUHU216HW,2013-05-19 16:02:00,
2013-05-19 12:07:00,77.0,42.3,30.16,SE,135,1.6,4.7,29,0.00,,,0.00,WUHU216HW,2013-05-19 16:07:00,
2013-05-19 12:12:00,76.1,42.6,30.16,NW,315,4.7,4.7,30,0.00,,,0.00,WUHU216HW,2013-05-19 16:12:00,
2013-05-19 12:17:00,74.9,41.4,30.16,North,0,4.7,4.7,30,0.00,,,0.00,WUHU216HW,2013-05-19 16:17:00,
2013-05-19 12:22:00,75.2,44.0,30.16,ESE,113,2.2,5.8,33,0.00,,,0.00,WUHU216HW,2013-05-19 16:22:00,
2013-05-19 12:27:00,75.2,43.3,30.16,ESE,113,0.0,5.8,32,0.00,,,0.00,WUHU216HW,2013-05-19 16:27:00,
2013-05-19 12:32:00,76.0,44.6,30.16,South,180,2.9,4.5,33,0.00,,,0.00,WUHU216HW,2013-05-19 16:32:00,
2013-05-19 12:37:00,76.1,41.6,30.16,SSE,158,2.7,6.3,29,0.00,,,0.00,WUHU216HW,2013-05-19 16:37:00,
2013-05-19 12:42:00,76.5,42.9,30.16,SSW,203,6.3,6.3,30,0.00,,,0.00,WUHU216HW,2013-05-19 16:42:00,
2013-05-19 12:47:00,76.3,40.7,30.16,SSE,158,8.1,8.3,28,0.00,,,0.00,WUHU216HW,2013-05-19 16:47:00,
2013-05-19 12:52:00,76.1,42.6,30.16,SSE,158,5.4,11.4,30,0.00,,,0.00,WUHU216HW,2013-05-19 16:52:00,
2013-05-19 12:57:00,76.3,42.8,30.15,SW,225,2.2,11.4,30,0.00,,,0.00,WUHU216HW,2013-05-19 16:57:00,
2013-05-19 13:02:00,75.8,42.2,30.15,SSW,203,3.6,8.1,30,0.00,,,0.00,WUHU216HW,2013-05-19 17:02:00,
2013-05-19 13:07:00,76.0,43.2,30.15,SSE,158,2.2,8.1,31,0.00,,,0.00,WUHU216HW,2013-05-19 17:07:00,
2013-05-19 13:12:00,76.9,44.7,30.15,SSW,203,4.7,6.9,32,0.00,,,0.00,WUHU216HW,2013-05-19 17:12:00,
2013-05-19 13:17:00,77.0,43.4,30.15,South,180,3.6,4.7,30,0.00,,,0.00,WUHU216HW,2013-05-19 17:17:00,
2013-05-19 13:22:00,77.0,42.3,30.15,South,180,5.8,7.4,29,0.00,,,0.00,WUHU216HW,2013-05-19 17:22:00,
2013-05-19 13:27:00,76.7,43.0,30.14,SW,225,4.0,7.4,30,0.00,,,0.00,WUHU216HW,2013-05-19 17:27:00,
2013-05-19 13:32:00,76.0,43.9,30.14,SSE,158,3.1,5.8,32,0.00,,,0.00,WUHU216HW,2013-05-19 17:32:00,
2013-05-19 13:37:00,76.5,44.4,30.14,SSW,203,3.4,4.7,32,0.00,,,0.00,WUHU216HW,2013-05-19 17:37:00,
2013-05-19 13:42:00,76.0,43.9,30.14,SSE,158,2.7,4.0,32,0.00,,,0.00,WUHU216HW,2013-05-19 17:42:00,
2013-05-19 13:47:00,75.6,43.6,30.14,WSW,248,5.4,5.6,32,0.00,,,0.00,WUHU216HW,2013-05-19 17:47:00,
2013-05-19 13:52:00,75.1,43.8,30.13,SSE,158,6.3,6.3,33,0.00,,,0.00,WUHU216HW,2013-05-19 17:52:00,
2013-05-19 13:57:00,75.2,44.0,30.13,SW,225,3.6,7.6,33,0.00,,,0.00,WUHU216HW,2013-05-19 17:57:00,
2013-05-19 14:02:00,75.4,43.5,30.13,SSW,203,6.0,9.4,32,0.00,,,0.00,WUHU216HW,2013-05-19 18:02:00,
2013-05-19 14:07:00,75.1,43.1,30.13,South,180,6.3,9.4,32,0.00,,,0.00,WUHU216HW,2013-05-19 18:07:00,
2013-05-19 14:12:00,75.1,43.8,30.13,South,180,5.4,8.3,33,0.00,,,0.00,WUHU216HW,2013-05-19 18:12:00,
2013-05-19 14:17:00,75.6,44.4,30.13,SSE,158,5.4,8.3,33,0.00,,,0.00,WUHU216HW,2013-05-19 18:17:00,
2013-05-19 14:22:00,75.4,44.2,30.13,ESE,113,2.5,7.6,33,0.00,,,0.00,WUHU216HW,2013-05-19 18:22:00,
2013-05-19 14:27:00,74.0,43.7,30.13,NNE,23,1.6,7.6,34,0.00,,,0.00,WUHU216HW,2013-05-19 18:27:00,
2013-05-19 14:32:00,73.6,44.1,30.12,South,180,3.4,4.9,35,0.00,,,0.00,WUHU216HW,2013-05-19 18:32:00,
2013-05-19 14:37:00,74.2,43.8,30.12,South,180,5.8,8.7,34,0.00,,,0.00,WUHU216HW,2013-05-19 18:37:00,
2013-05-19 14:42:00,74.2,43.8,30.13,SSE,158,6.7,8.7,34,0.00,,,0.00,WUHU216HW,2013-05-19 18:42:00,
2013-05-19 14:47:00,73.4,43.2,30.12,ESE,113,6.5,8.3,34,0.00,,,0.00,WUHU216HW,2013-05-19 18:47:00,
2013-05-19 14:52:00,73.1,43.7,30.12,SSE,158,2.0,6.9,35,0.00,,,0.00,WUHU216HW,2013-05-19 18:52:00,
2013-05-19 14:57:00,73.1,43.7,30.12,SSE,158,1.8,6.5,35,0.00,,,0.00,WUHU216HW,2013-05-19 18:57:00,
2013-05-19 15:02:00,73.3,43.7,30.12,SE,135,5.1,7.4,35,0.00,,,0.00,WUHU216HW,2013-05-19 19:02:00,
2013-05-19 15:07:00,72.9,45.0,30.12,SSE,158,4.9,7.4,37,0.00,,,0.00,WUHU216HW,2013-05-19 19:07:00,
2013-05-19 15:12:00,72.7,45.5,30.12,SSW,203,4.7,8.1,38,0.00,,,0.00,WUHU216HW,2013-05-19 19:12:00,
2013-05-19 15:17:00,72.4,45.3,30.12,SSW,203,5.6,8.1,38,0.00,,,0.00,WUHU216HW,2013-05-19 19:17:00,
2013-05-19 15:22:00,72.7,45.5,30.11,SW,225,6.0,7.6,38,0.00,,,0.00,WUHU216HW,2013-05-19 19:22:00,
2013-05-19 15:27:00,72.9,45.7,30.12,South,180,4.7,9.2,38,0.00,,,0.00,WUHU216HW,2013-05-19 19:27:00,
2013-05-19 15:32:00,73.1,45.1,30.11,SSE,158,6.9,9.2,37,0.00,,,0.00,WUHU216HW,2013-05-19 19:32:00,
2013-05-19 15:37:00,72.7,44.8,30.11,South,180,4.7,9.8,37,0.00,,,0.00,WUHU216HW,2013-05-19 19:37:00,
2013-05-19 15:42:00,72.0,43.5,30.12,SSE,158,8.5,13.4,36,0.00,,,0.00,WUHU216HW,2013-05-19 19:42:00,
2013-05-19 15:47:00,71.5,43.8,30.11,South,180,8.3,13.4,37,0.00,,,0.00,WUHU216HW,2013-05-19 19:47:00,
2013-05-19 15:52:00,71.5,43.8,30.11,SSW,203,7.6,10.5,37,0.00,,,0.00,WUHU216HW,2013-05-19 19:52:00,
2013-05-19 15:57:00,71.6,43.1,30.11,SSE,158,4.5,10.5,36,0.00,,,0.00,WUHU216HW,2013-05-19 19:57:00,
2013-05-19 16:02:00,71.6,44.7,30.11,SE,135,9.8,14.3,38,0.00,,,0.00,WUHU216HW,2013-05-19 20:02:00,
2013-05-19 16:07:00,71.3,44.3,30.11,SE,135,8.9,14.3,38,0.00,,,0.00,WUHU216HW,2013-05-19 20:07:00,
2013-05-19 16:12:00,71.6,45.4,30.11,SE,135,6.9,11.9,39,0.00,,,0.00,WUHU216HW,2013-05-19 20:12:00,
2013-05-19 16:17:00,72.2,45.8,30.11,ESE,113,9.4,11.2,39,0.00,,,0.00,WUHU216HW,2013-05-19 20:17:00,
2013-05-19 16:22:00,72.5,45.4,30.11,SSW,203,4.9,11.2,38,0.00,,,0.00,WUHU216HW,2013-05-19 20:22:00,
2013-05-19 16:27:00,72.0,44.9,30.11,SSE,158,6.0,12.5,38,0.00,,,0.00,WUHU216HW,2013-05-19 20:27:00,
2013-05-19 16:32:00,71.5,44.5,30.11,South,180,6.3,12.5,38,0.00,,,0.00,WUHU216HW,2013-05-19 20:32:00,
2013-05-19 16:37:00,71.5,45.2,30.11,SE,135,6.3,10.5,39,0.00,,,0.00,WUHU216HW,2013-05-19 20:37:00,
2013-05-19 16:42:00,71.3,45.0,30.11,SSE,158,4.7,9.8,39,0.00,,,0.00,WUHU216HW,2013-05-19 20:42:00,
2013-05-19 16:47:00,71.3,45.7,30.11,SSE,158,5.8,9.8,40,0.00,,,0.00,WUHU216HW,2013-05-19 20:47:00,
2013-05-19 16:52:00,70.9,44.7,30.11,SSE,158,1.8,8.1,39,0.00,,,0.00,WUHU216HW,2013-05-19 20:52:00,
2013-05-19 16:57:00,70.6,44.4,30.11,SSE,158,5.6,8.1,39,0.00,,,0.00,WUHU216HW,2013-05-19 20:57:00,
2013-05-19 17:02:00,70.2,44.0,30.11,SSE,158,2.5,9.2,39,0.00,,,0.00,WUHU216HW,2013-05-19 21:02:00,
2013-05-19 17:07:00,70.0,44.7,30.11,ESE,113,3.4,9.2,40,0.00,,,0.00,WUHU216HW,2013-05-19 21:07:00,
2013-05-19 17:12:00,69.7,44.3,30.10,SSE,158,10.5,10.5,40,0.00,,,0.00,WUHU216HW,2013-05-19 21:12:00,
2013-05-19 17:17:00,69.1,43.8,30.10,SE,135,6.7,10.7,40,0.00,,,0.00,WUHU216HW,2013-05-19 21:17:00,
2013-05-19 17:22:00,69.3,44.0,30.10,East,90,4.3,10.7,40,0.00,,,0.00,WUHU216HW,2013-05-19 21:22:00,
2013-05-19 17:27:00,68.9,43.7,30.10,SE,135,5.6,9.2,40,0.00,,,0.00,WUHU216HW,2013-05-19 21:27:00,
2013-05-19 17:32:00,68.8,44.1,30.10,ENE,68,4.3,9.2,41,0.00,,,0.00,WUHU216HW,2013-05-19 21:32:00,
2013-05-19 17:37:00,68.4,43.7,30.10,SSE,158,10.5,10.5,41,0.00,,,0.00,WUHU216HW,2013-05-19 21:37:00,
2013-05-19 17:42:00,67.7,42.5,30.09,SE,135,7.8,11.4,40,0.00,,,0.00,WUHU216HW,2013-05-19 21:42:00,
2013-05-19 17:47:00,67.3,42.2,30.10,SSE,158,10.5,11.4,40,0.00,,,0.00,WUHU216HW,2013-05-19 21:47:00,
2013-05-19 17:52:00,67.3,42.8,30.10,SE,135,6.9,10.5,41,0.00,,,0.00,WUHU216HW,2013-05-19 21:52:00,
2013-05-19 17:57:00,67.0,42.5,30.09,ESE,113,6.3,10.5,41,0.00,,,0.00,WUHU216HW,2013-05-19 21:57:00,
2013-05-19 18:02:00,67.0,43.0,30.09,SE,135,9.4,11.0,42,0.00,,,0.00,WUHU216HW,2013-05-19 22:02:00,
2013-05-19 18:07:00,66.8,42.9,30.10,SE,135,4.5,11.0,42,0.00,,,0.00,WUHU216HW,2013-05-19 22:07:00,
2013-05-19 18:12:00,66.4,42.6,30.09,SSE,158,6.9,9.4,42,0.00,,,0.00,WUHU216HW,2013-05-19 22:12:00,
2013-05-19 18:17:00,66.1,42.9,30.10,SSE,158,6.3,8.7,43,0.00,,,0.00,WUHU216HW,2013-05-19 22:17:00,
2013-05-19 18:22:00,65.9,42.7,30.10,SSE,158,5.8,8.5,43,0.00,,,0.00,WUHU216HW,2013-05-19 22:22:00,
2013-05-19 18:27:00,65.3,42.8,30.09,SE,135,5.8,9.2,44,0.00,,,0.00,WUHU216HW,2013-05-19 22:27:00,
2013-05-19 18:32:00,65.2,42.6,30.10,ESE,113,4.9,9.2,44,0.00,,,0.00,WUHU216HW,2013-05-19 22:32:00,
2013-05-19 18:37:00,65.0,42.4,30.10,SSE,158,6.3,8.3,44,0.00,,,0.00,WUHU216HW,2013-05-19 22:37:00,
2013-05-19 18:42:00,64.8,42.9,30.10,SE,135,4.7,6.9,45,0.00,,,0.00,WUHU216HW,2013-05-19 22:42:00,
2013-05-19 18:47:00,64.4,42.5,30.10,SSE,158,5.6,7.6,45,0.00,,,0.00,WUHU216HW,2013-05-19 22:47:00,
2013-05-19 18:52:00,64.4,42.5,30.10,SSW,203,4.0,7.6,45,0.00,,,0.00,WUHU216HW,2013-05-19 22:52:00,
2013-05-19 18:57:00,64.3,42.9,30.10,SSW,203,3.6,6.0,46,0.00,,,0.00,WUHU216HW,2013-05-19 22:57:00,
2013-05-19 19:02:00,64.1,43.9,30.10,SSW,203,3.8,8.3,48,0.00,,,0.00,WUHU216HW,2013-05-19 23:02:00,
2013-05-19 19:07:00,63.7,46.2,30.10,SW,225,6.0,8.3,53,0.00,,,0.00,WUHU216HW,2013-05-19 23:07:00,
2013-05-19 19:12:00,63.2,47.2,30.10,SSW,203,5.4,7.8,56,0.00,,,0.00,WUHU216HW,2013-05-19 23:12:00,
2013-05-19 19:18:00,62.6,48.6,30.11,SW,225,5.6,7.8,60,0.00,,,0.00,WUHU216HW,2013-05-19 23:18:00,
2013-05-19 19:23:00,61.9,48.8,30.11,SSW,203,2.5,7.8,62,0.00,,,0.00,WUHU216HW,2013-05-19 23:23:00,
2013-05-19 19:28:00,61.2,49.8,30.11,SSW,203,4.3,5.4,66,0.00,,,0.00,WUHU216HW,2013-05-19 23:28:00,
2013-05-19 19:33:00,60.5,49.5,30.11,SW,225,4.0,6.3,67,0.00,,,0.00,WUHU216HW,2013-05-19 23:33:00,
2013-05-19 19:38:00,59.9,49.4,30.11,SSW,203,4.3,6.7,68,0.00,,,0.00,WUHU216HW,2013-05-19 23:38:00,
2013-05-19 19:43:00,59.4,50.0,30.11,SSW,203,6.7,7.8,71,0.00,,,0.00,WUHU216HW,2013-05-19 23:43:00,
2013-05-19 19:48:00,58.9,49.5,30.11,South,180,7.6,9.4,71,0.01,,,0.01,WUHU216HW,2013-05-19 23:48:00,
2013-05-19 19:53:00,58.5,48.8,30.12,SSW,203,5.8,9.4,70,0.01,,,0.01,WUHU216HW,2013-05-19 23:53:00,
2013-05-19 19:58:00,58.3,49.0,30.11,SSE,158,6.5,8.9,71,0.02,,,0.02,WUHU216HW,2013-05-19 23:58:00,
2013-05-19 20:03:00,58.0,49.0,30.11,SSE,158,3.6,8.9,72,0.02,,,0.02,WUHU216HW,2013-05-20 00:03:00,
2013-05-19 20:08:00,57.6,49.3,30.11,SSE,158,4.3,8.1,74,0.02,,,0.02,WUHU216HW,2013-05-20 00:08:00,
2013-05-19 20:13:00,57.4,48.8,30.11,South,180,2.0,8.1,73,0.03,,,0.03,WUHU216HW,2013-05-20 00:13:00,
2013-05-19 20:18:00,57.4,48.8,30.12,South,180,2.5,5.4,73,0.03,,,0.03,WUHU216HW,2013-05-20 00:18:00,
2013-05-19 20:23:00,57.2,49.0,30.12,SSE,158,4.0,5.1,74,0.03,,,0.03,WUHU216HW,2013-05-20 00:23:00,
2013-05-19 20:28:00,56.9,48.6,30.12,SE,135,2.7,4.9,74,0.04,,,0.04,WUHU216HW,2013-05-20 00:28:00,
2013-05-19 20:33:00,56.9,49.0,30.12,SE,135,2.2,4.9,75,0.04,,,0.04,WUHU216HW,2013-05-20 00:33:00,
2013-05-19 20:38:00,56.7,48.8,30.11,SE,135,1.8,4.3,75,0.05,,,0.05,WUHU216HW,2013-05-20 00:38:00,
2013-05-19 20:43:00,56.5,49.3,30.11,SE,135,3.1,3.8,77,0.05,,,0.05,WUHU216HW,2013-05-20 00:43:00,
2013-05-19 20:48:00,56.3,49.5,30.11,SE,135,3.8,4.0,78,0.05,,,0.06,WUHU216HW,2013-05-20 00:48:00,
2013-05-19 20:53:00,56.2,49.7,30.11,SE,135,3.8,5.8,79,0.05,,,0.06,WUHU216HW,2013-05-20 00:53:00,
2013-05-19 20:58:00,56.0,49.5,30.11,SSE,158,4.7,5.8,79,0.04,,,0.06,WUHU216HW,2013-05-20 00:58:00,
2013-05-19 21:03:00,56.0,49.9,30.11,SSE,158,2.9,5.4,80,0.05,,,0.07,WUHU216HW,2013-05-20 01:03:00,
2013-05-19 21:08:00,55.8,49.3,30.11,SSE,158,4.0,5.4,79,0.05,,,0.08,WUHU216HW,2013-05-20 01:08:00,
2013-05-19 21:13:00,55.8,49.3,30.11,South,180,3.6,5.4,79,0.05,,,0.08,WUHU216HW,2013-05-20 01:13:00,
2013-05-19 21:18:00,55.8,50.1,30.11,SSW,203,2.5,4.0,81,0.05,,,0.08,WUHU216HW,2013-05-20 01:18:00,
2013-05-19 21:23:00,55.6,49.9,30.11,SSW,203,2.9,3.6,81,0.04,,,0.08,WUHU216HW,2013-05-20 01:23:00,
2013-05-19 21:28:00,55.6,49.9,30.11,SSW,203,1.8,3.6,81,0.04,,,0.08,WUHU216HW,2013-05-20 01:28:00,
2013-05-19 21:33:00,55.6,49.9,30.12,SW,225,0.0,3.4,81,0.04,,,0.08,WUHU216HW,2013-05-20 01:33:00,
2013-05-19 21:38:00,55.4,49.3,30.11,SSW,203,1.3,1.8,80,0.04,,,0.10,WUHU216HW,2013-05-20 01:38:00,
2013-05-19 21:43:00,55.4,49.3,30.11,South,180,1.8,2.2,80,0.04,,,0.10,WUHU216HW,2013-05-20 01:43:00,
2013-05-19 21:48:00,55.4,49.3,30.11,SSE,158,2.2,2.7,80,0.03,,,0.10,WUHU216HW,2013-05-20 01:48:00,
2013-05-19 21:53:00,55.4,49.3,30.11,South,180,2.0,2.9,80,0.04,,,0.10,WUHU216HW,2013-05-20 01:53:00,
2013-05-19 21:58:00,55.4,49.3,30.11,SSE,158,2.5,2.9,80,0.03,,,0.10,WUHU216HW,2013-05-20 01:58:00,
2013-05-19 22:03:00,55.4,49.3,30.11,SSE,158,2.0,2.5,80,0.04,,,0.12,WUHU216HW,2013-05-20 02:03:00,
2013-05-19 22:08:00,55.4,49.3,30.11,South,180,1.8,2.5,80,0.03,,,0.12,WUHU216HW,2013-05-20 02:08:00,
2013-05-19 22:13:00,55.3,49.5,30.10,South,180,2.9,3.4,81,0.04,,,0.12,WUHU216HW,2013-05-20 02:13:00,
2013-05-19 22:18:00,55.1,49.3,30.10,SSW,203,3.4,4.5,81,0.04,,,0.12,WUHU216HW,2013-05-20 02:18:00,
2013-05-19 22:23:00,55.1,50.0,30.09,South,180,3.1,4.5,83,0.04,,,0.12,WUHU216HW,2013-05-20 02:23:00,
2013-05-19 22:28:00,55.1,49.7,30.09,SSE,158,4.0,4.7,82,0.04,,,0.12,WUHU216HW,2013-05-20 02:28:00,
2013-05-19 22:33:00,55.1,50.3,30.09,SSE,158,4.9,4.9,84,0.04,,,0.12,WUHU216HW,2013-05-20 02:33:00,
2013-05-19 22:38:00,55.1,50.0,30.09,South,180,2.7,4.9,83,0.04,,,0.13,WUHU216HW,2013-05-20 02:38:00,
2013-05-19 22:43:00,54.9,49.8,30.09,South,180,2.0,4.7,83,0.04,,,0.13,WUHU216HW,2013-05-20 02:43:00,
2013-05-19 22:48:00,54.9,50.1,30.08,SSE,158,2.9,5.8,84,0.03,,,0.13,WUHU216HW,2013-05-20 02:48:00,
2013-05-19 22:53:00,54.9,50.1,30.08,SE,135,3.1,5.8,84,0.04,,,0.14,WUHU216HW,2013-05-20 02:53:00,
2013-05-19 22:58:00,54.9,50.1,30.08,SW,225,2.5,3.8,84,0.04,,,0.14,WUHU216HW,2013-05-20 02:58:00,
2013-05-19 23:03:00,54.9,50.1,30.08,SSE,158,1.8,3.8,84,0.03,,,0.14,WUHU216HW,2013-05-20 03:03:00,
2013-05-19 23:08:00,54.9,50.1,30.08,SSW,203,2.5,3.8,84,0.02,,,0.14,WUHU216HW,2013-05-20 03:08:00,
2013-05-19 23:13:00,54.9,50.1,30.07,SSW,203,2.5,3.8,84,0.02,,,0.14,WUHU216HW,2013-05-20 03:13:00,
2013-05-19 23:18:00,54.9,50.4,30.07,SSE,158,2.0,3.8,85,0.02,,,0.14,WUHU216HW,2013-05-20 03:18:00,
2013-05-19 23:23:00,54.7,50.0,30.06,SSW,203,2.0,4.0,84,0.02,,,0.14,WUHU216HW,2013-05-20 03:23:00,
2013-05-19 23:28:00,54.7,50.6,30.06,SSE,158,3.1,4.0,86,0.02,,,0.14,WUHU216HW,2013-05-20 03:28:00,
2013-05-19 23:33:00,54.7,50.2,30.05,SE,135,1.3,4.0,85,0.01,,,0.14,WUHU216HW,2013-05-20 03:33:00,
2013-05-19 23:38:00,54.7,50.6,30.05,SSW,203,2.0,5.1,86,0.01,,,0.14,WUHU216HW,2013-05-20 03:38:00,
2013-05-19 23:43:00,54.7,50.2,30.06,SSE,158,0.0,5.1,85,0.01,,,0.14,WUHU216HW,2013-05-20 03:43:00,
2013-05-19 23:48:00,54.7,50.0,30.06,SSW,203,1.1,2.7,84,0.00,,,0.14,WUHU216HW,2013-05-20 03:48:00,
2013-05-19 23:53:00,54.7,50.0,30.05,SSE,158,0.4,2.5,84,0.00,,,0.14,WUHU216HW,2013-05-20 03:53:00,
2013-05-19 23:58:00,54.7,50.0,30.05,SE,135,1.8,3.1,84,0.00,,,0.14,WUHU216HW,2013-05-20 03:58:00,